Time;durP1;ratioP1;P1;durP2;ratioP2;P2;SDS_P1;SDS_P2;PMS_P1;PMS_P2;Temp;Humidity;BMP_temperature;BMP_pressure;BME280_temperature;BME280_humidity;BME280_pressure;Samples;Min_cycle;Max_cycle;Signal;HPM_P1;HPM_P2
2023/01/24 00:01:14;;;;;;;49.95;32.33;;;;;;;;;;5080963;28;20047;-71
2023/01/24 00:03:40;;;;;;;47.95;29.92;;;;;;;;;;5081633;28;20071;-71
2023/01/24 00:06:06;;;;;;;38.25;24.13;;;;;;;;;;5085655;28;20051;-72
2023/01/24 00:08:32;;;;;;;34.80;24.17;;;;;;;;;;5081089;28;20045;-71
2023/01/24 00:11:18;;;;;;;35.58;24.05;;;;;;;;;;5082278;28;20048;-74
2023/01/24 00:13:44;;;;;;;36.67;24.50;;;;;;;;;;5084090;28;20056;-73
2023/01/24 00:16:15;;;;;;;41.15;26.88;;;;;;;;;;5072886;28;20048;-73
2023/01/24 00:18:41;;;;;;;38.38;25.50;;;;;;;;;;5079715;28;20082;-71
2023/01/24 00:21:09;;;;;;;42.00;28.70;;;;;;;;;;5080021;28;20494;-71
2023/01/24 00:23:39;;;;;;;51.83;31.48;;;;;;;;;;5083143;28;20040;-71
2023/01/24 00:26:05;;;;;;;55.75;32.63;;;;;;;;;;5081495;28;20071;-71
2023/01/24 00:28:32;;;;;;;52.33;31.02;;;;;;;;;;5080724;28;20382;-71
2023/01/24 00:30:58;;;;;;;52.13;32.28;;;;;;;;;;5082486;28;21740;-71
2023/01/24 00:33:24;;;;;;;51.60;32.17;;;;;;;;;;5082033;28;20127;-71
2023/01/24 00:35:51;;;;;;;51.42;31.48;;;;;;;;;;5063434;28;20120;-71
2023/01/24 00:38:17;;;;;;;36.03;24.65;;;;;;;;;;5081749;28;20043;-71
2023/01/24 00:40:44;;;;;;;54.30;34.35;;;;;;;;;;5076317;28;20136;-71
2023/01/24 00:43:10;;;;;;;44.03;29.77;;;;;;;;;;5082102;28;20170;-71
2023/01/24 00:45:36;;;;;;;40.63;27.23;;;;;;;;;;5062788;28;20048;-71
2023/01/24 00:48:03;;;;;;;42.45;27.13;;;;;;;;;;5085861;28;20040;-71
2023/01/24 00:50:29;;;;;;;38.25;25.50;;;;;;;;;;5089253;28;20036;-71
2023/01/24 00:52:55;;;;;;;38.63;24.95;;;;;;;;;;5085402;28;20048;-71
2023/01/24 00:55:21;;;;;;;38.70;25.35;;;;;;;;;;5085249;28;20044;-71
2023/01/24 00:57:47;;;;;;;37.88;25.90;;;;;;;;;;5085698;28;20032;-71
2023/01/24 01:00:13;;;;;;;36.30;24.27;;;;;;;;;;5083361;28;20056;-71
2023/01/24 01:02:40;;;;;;;38.97;24.35;;;;;;;;;;5086342;28;20055;-72
2023/01/24 01:05:06;;;;;;;35.20;23.63;;;;;;;;;;5087003;28;20067;-72
2023/01/24 01:07:32;;;;;;;32.15;21.83;;;;;;;;;;5087160;28;20032;-71
2023/01/24 01:09:58;;;;;;;33.20;22.40;;;;;;;;;;5085984;28;20040;-71
2023/01/24 01:12:24;;;;;;;34.78;23.52;;;;;;;;;;5086768;28;20048;-71
2023/01/24 01:14:50;;;;;;;34.78;24.25;;;;;;;;;;5085072;28;20413;-71
2023/01/24 01:17:16;;;;;;;34.95;23.60;;;;;;;;;;5086927;28;20113;-72
2023/01/24 01:19:43;;;;;;;35.50;24.23;;;;;;;;;;5086052;28;20036;-72
2023/01/24 01:22:09;;;;;;;34.83;24.35;;;;;;;;;;5088231;28;20048;-72
2023/01/24 01:24:35;;;;;;;35.65;23.90;;;;;;;;;;5084197;28;20051;-72
2023/01/24 01:27:01;;;;;;;35.72;23.35;;;;;;;;;;5077848;28;20044;-72
2023/01/24 01:29:27;;;;;;;34.45;21.52;;;;;;;;;;5086168;28;20547;-71
2023/01/24 01:31:53;;;;;;;31.25;21.38;;;;;;;;;;5081381;28;20510;-72
2023/01/24 01:34:19;;;;;;;35.90;23.75;;;;;;;;;;5083934;28;20406;-72
2023/01/24 01:36:45;;;;;;;33.00;22.95;;;;;;;;;;5086104;28;20044;-72
2023/01/24 01:39:11;;;;;;;33.78;23.42;;;;;;;;;;5084109;28;20043;-72
2023/01/24 01:41:37;;;;;;;34.05;22.52;;;;;;;;;;5084220;28;20119;-72
2023/01/24 01:44:40;;;;;;;32.53;22.63;;;;;;;;;;5086632;28;20044;-73
2023/01/24 01:47:19;;;;;;;31.40;21.77;;;;;;;;;;4984118;28;20038;-72
2023/01/24 01:50:06;;;;;;;27.77;20.42;;;;;;;;;;4992653;28;20412;-72
2023/01/24 01:52:36;;;;;;;30.90;21.48;;;;;;;;;;4985173;28;20104;-73
2023/01/24 01:55:05;;;;;;;31.33;21.17;;;;;;;;;;4986048;28;20058;-73
2023/01/24 01:57:32;;;;;;;27.77;19.88;;;;;;;;;;4982055;28;20499;-72
2023/01/24 02:00:04;;;;;;;28.10;19.92;;;;;;;;;;4992252;28;20049;-73
2023/01/24 02:02:31;;;;;;;30.30;21.38;;;;;;;;;;4998321;28;20053;-72
2023/01/24 02:04:59;;;;;;;31.80;21.08;;;;;;;;;;5001533;28;20077;-73
2023/01/24 02:07:31;;;;;;;31.30;20.67;;;;;;;;;;5002571;28;20046;-72
2023/01/24 02:09:58;;;;;;;26.70;19.58;;;;;;;;;;5002203;28;20112;-74
2023/01/24 02:12:25;;;;;;;25.58;18.63;;;;;;;;;;5002730;28;20496;-72
2023/01/24 02:17:39;;;;;;;22.52;15.80;;;;;;;;;;5003821;28;20484;-72
2023/01/24 02:20:20;;;;;;;20.20;14.88;;;;;;;;;;5009463;28;20047;-72
2023/01/24 02:22:46;;;;;;;20.88;16.38;;;;;;;;;;5082197;28;20567;-72
2023/01/24 02:25:20;;;;;;;25.70;16.73;;;;;;;;;;5082356;28;20036;-72
2023/01/24 02:27:46;;;;;;;23.42;16.27;;;;;;;;;;5083094;28;20036;-72
2023/01/24 02:30:12;;;;;;;22.30;16.70;;;;;;;;;;5084309;28;20043;-72
2023/01/24 02:32:38;;;;;;;23.67;17.40;;;;;;;;;;5083189;28;20036;-72
2023/01/24 02:35:05;;;;;;;26.13;18.13;;;;;;;;;;5092290;28;20071;-72
2023/01/24 02:37:32;;;;;;;25.38;19.17;;;;;;;;;;5090427;28;20120;-72
2023/01/24 02:39:58;;;;;;;23.48;17.25;;;;;;;;;;5093906;28;20441;-72
2023/01/24 02:42:26;;;;;;;26.10;18.52;;;;;;;;;;5076912;28;20052;-72
2023/01/24 02:45:10;;;;;;;24.10;17.92;;;;;;;;;;5092190;28;20044;-72
2023/01/24 02:47:39;;;;;;;23.52;17.20;;;;;;;;;;5091933;28;20032;-72
2023/01/24 02:50:07;;;;;;;24.38;18.30;;;;;;;;;;5086261;28;20086;-72
2023/01/24 02:55:17;;;;;;;21.45;15.88;;;;;;;;;;5082140;28;20119;-72
2023/01/24 03:00:28;;;;;;;24.15;17.05;;;;;;;;;;5088141;28;20052;-72
2023/01/24 03:02:54;;;;;;;23.33;18.10;;;;;;;;;;5083202;28;20056;-72
2023/01/24 03:05:21;;;;;;;23.83;17.52;;;;;;;;;;5084470;28;20062;-72
2023/01/24 03:07:47;;;;;;;22.13;16.15;;;;;;;;;;5084653;28;20036;-72
2023/01/24 03:10:14;;;;;;;24.25;17.02;;;;;;;;;;5081517;28;20494;-72
2023/01/24 03:34:49;;;;;;;22.60;16.33;;;;;;;;;;5081146;28;20056;-72
2023/01/24 03:37:16;;;;;;;20.85;14.68;;;;;;;;;;5082928;28;20482;-72
2023/01/24 03:39:58;;;;;;;19.25;14.73;;;;;;;;;;5082604;28;20042;-71
2023/01/24 03:42:25;;;;;;;19.23;13.52;;;;;;;;;;5082185;28;20048;-71
2023/01/24 03:44:51;;;;;;;18.92;13.18;;;;;;;;;;5083032;28;20040;-71
2023/01/24 03:47:17;;;;;;;18.60;13.25;;;;;;;;;;5080680;28;20032;-71
2023/01/24 03:52:28;;;;;;;21.67;14.57;;;;;;;;;;5080964;28;20051;-72
2023/01/24 03:54:55;;;;;;;18.17;13.35;;;;;;;;;;5091129;28;20044;-71
2023/01/24 03:57:21;;;;;;;17.75;12.82;;;;;;;;;;5088360;28;20040;-72
2023/01/24 03:59:47;;;;;;;19.45;12.50;;;;;;;;;;5086773;28;20045;-71
2023/01/24 04:02:13;;;;;;;24.00;14.23;;;;;;;;;;5080265;28;20048;-72
2023/01/24 04:07:24;;;;;;;20.35;12.82;;;;;;;;;;5077835;28;20127;-72
2023/01/24 04:09:50;;;;;;;18.27;13.25;;;;;;;;;;5085701;28;20044;-72
2023/01/24 04:12:17;;;;;;;20.17;12.38;;;;;;;;;;5092614;28;20055;-72
2023/01/24 04:14:43;;;;;;;18.02;11.88;;;;;;;;;;5092192;28;20131;-72
2023/01/24 04:17:10;;;;;;;15.73;10.75;;;;;;;;;;5093253;28;20094;-72
2023/01/24 04:19:36;;;;;;;19.13;11.40;;;;;;;;;;5088143;28;20044;-72
2023/01/24 04:22:02;;;;;;;16.02;10.75;;;;;;;;;;5072973;28;20052;-72
2023/01/24 04:24:28;;;;;;;16.40;11.32;;;;;;;;;;5087374;28;20122;-72
2023/01/24 04:26:54;;;;;;;18.45;11.80;;;;;;;;;;5082605;28;20047;-72
2023/01/24 04:29:20;;;;;;;17.30;11.40;;;;;;;;;;5086115;28;20067;-72
2023/01/24 04:31:46;;;;;;;17.52;12.05;;;;;;;;;;5085995;28;20402;-72
2023/01/24 04:34:12;;;;;;;17.45;12.02;;;;;;;;;;5077953;28;20035;-72
2023/01/24 04:36:38;;;;;;;17.00;11.07;;;;;;;;;;5090753;28;20039;-73
2023/01/24 04:39:04;;;;;;;17.35;11.93;;;;;;;;;;5081553;28;20409;-72
2023/01/24 04:41:30;;;;;;;17.00;12.13;;;;;;;;;;5082708;28;20146;-72
2023/01/24 04:43:56;;;;;;;18.20;12.15;;;;;;;;;;5082289;28;20067;-72
2023/01/24 04:46:22;;;;;;;16.40;10.50;;;;;;;;;;5083361;28;20043;-72
2023/01/24 04:48:49;;;;;;;17.92;10.55;;;;;;;;;;5080842;28;20093;-72
2023/01/24 04:51:15;;;;;;;15.13;10.27;;;;;;;;;;5080121;28;20055;-72
2023/01/24 04:53:41;;;;;;;16.35;11.02;;;;;;;;;;5064012;28;20051;-72
2023/01/24 04:56:08;;;;;;;15.27;10.07;;;;;;;;;;5083509;28;20056;-72
2023/01/24 04:58:34;;;;;;;15.88;11.18;;;;;;;;;;5079312;28;20040;-72
2023/01/24 05:01:01;;;;;;;16.73;11.27;;;;;;;;;;5076873;28;20044;-71
2023/01/24 05:03:27;;;;;;;16.20;10.93;;;;;;;;;;5080844;28;20055;-72
2023/01/24 05:05:54;;;;;;;16.27;11.45;;;;;;;;;;5078388;28;20135;-72
2023/01/24 05:08:20;;;;;;;16.77;11.25;;;;;;;;;;5085672;28;20490;-72
2023/01/24 05:10:46;;;;;;;15.73;11.40;;;;;;;;;;5088474;28;20383;-72
2023/01/24 05:13:12;;;;;;;15.30;11.10;;;;;;;;;;5086722;28;20048;-72
2023/01/24 05:15:38;;;;;;;15.10;10.80;;;;;;;;;;5085721;28;20735;-72
2023/01/24 05:18:04;;;;;;;17.52;11.30;;;;;;;;;;5090259;28;20089;-72
2023/01/24 05:20:31;;;;;;;16.23;11.30;;;;;;;;;;5080414;28;20402;-72
2023/01/24 05:22:57;;;;;;;17.17;11.63;;;;;;;;;;5080218;28;20036;-72
2023/01/24 05:25:23;;;;;;;19.33;11.50;;;;;;;;;;5081985;28;20043;-72
2023/01/24 05:27:51;;;;;;;16.38;11.30;;;;;;;;;;5080335;28;20048;-72
2023/01/24 05:30:17;;;;;;;17.30;11.63;;;;;;;;;;5044239;28;20048;-72
2023/01/24 05:32:43;;;;;;;16.30;10.88;;;;;;;;;;5083643;28;20079;-72
2023/01/24 05:35:09;;;;;;;17.77;11.68;;;;;;;;;;5082514;28;20493;-72
2023/01/24 05:37:38;;;;;;;18.55;12.13;;;;;;;;;;5085116;28;20051;-72
2023/01/24 05:40:05;;;;;;;16.23;11.32;;;;;;;;;;5083632;28;20468;-72
2023/01/24 05:42:31;;;;;;;16.48;11.82;;;;;;;;;;5084916;28;20498;-72
2023/01/24 05:44:57;;;;;;;15.93;11.43;;;;;;;;;;5085152;28;20048;-72
2023/01/24 05:47:23;;;;;;;15.40;11.10;;;;;;;;;;5083820;28;20047;-72
2023/01/24 05:49:50;;;;;;;17.00;12.23;;;;;;;;;;5085370;28;20083;-72
2023/01/24 05:52:20;;;;;;;17.92;12.13;;;;;;;;;;5083144;28;20063;-72
2023/01/24 05:54:47;;;;;;;16.35;11.63;;;;;;;;;;5082966;28;20044;-72
2023/01/24 05:57:13;;;;;;;19.88;13.20;;;;;;;;;;5084996;28;20086;-72
2023/01/24 05:59:39;;;;;;;19.15;11.05;;;;;;;;;;5088976;28;20040;-72
2023/01/24 06:02:05;;;;;;;17.48;11.80;;;;;;;;;;5093176;28;20047;-72
2023/01/24 06:04:32;;;;;;;18.55;11.77;;;;;;;;;;5089982;28;20044;-73
2023/01/24 06:06:58;;;;;;;18.88;13.10;;;;;;;;;;5078659;28;20420;-72
2023/01/24 06:09:24;;;;;;;17.77;12.38;;;;;;;;;;5095772;28;20185;-72
2023/01/24 06:11:50;;;;;;;18.67;13.15;;;;;;;;;;5095291;28;20431;-72
2023/01/24 06:14:16;;;;;;;17.55;11.90;;;;;;;;;;5095636;28;20047;-72
2023/01/24 06:16:43;;;;;;;18.42;12.25;;;;;;;;;;5095512;28;20044;-72
2023/01/24 06:19:11;;;;;;;19.13;12.68;;;;;;;;;;5094236;28;20043;-72
2023/01/24 06:21:37;;;;;;;19.13;12.77;;;;;;;;;;5084121;28;20040;-72
2023/01/24 06:24:04;;;;;;;17.55;12.50;;;;;;;;;;5086649;28;20060;-72
2023/01/24 06:26:31;;;;;;;17.98;11.93;;;;;;;;;;5084554;28;20040;-72
2023/01/24 06:28:57;;;;;;;18.92;12.45;;;;;;;;;;5087974;28;20086;-72
2023/01/24 06:31:27;;;;;;;18.25;12.70;;;;;;;;;;5081097;28;20047;-72
2023/01/24 06:33:56;;;;;;;19.80;12.68;;;;;;;;;;5085538;28;20079;-72
2023/01/24 06:36:28;;;;;;;21.55;13.30;;;;;;;;;;5083477;28;20036;-72
2023/01/24 06:38:54;;;;;;;19.38;12.82;;;;;;;;;;5080274;28;20052;-72
2023/01/24 06:41:21;;;;;;;18.02;12.75;;;;;;;;;;5085492;28;20105;-72
2023/01/24 06:43:47;;;;;;;18.83;12.55;;;;;;;;;;5080437;28;20394;-72
2023/01/24 06:46:13;;;;;;;16.85;12.32;;;;;;;;;;5050060;28;20044;-71
2023/01/24 06:48:42;;;;;;;18.23;12.43;;;;;;;;;;5083266;28;20036;-72
2023/01/24 06:51:10;;;;;;;20.25;12.85;;;;;;;;;;5083445;28;20041;-72
2023/01/24 06:53:36;;;;;;;18.95;12.85;;;;;;;;;;5079022;28;20040;-72
2023/01/24 06:56:02;;;;;;;18.70;12.90;;;;;;;;;;5083913;28;20040;-72
2023/01/24 06:58:28;;;;;;;19.42;12.95;;;;;;;;;;5086216;28;20048;-72
2023/01/24 07:00:54;;;;;;;17.80;12.32;;;;;;;;;;5083670;28;20051;-72
2023/01/24 07:03:20;;;;;;;18.25;12.23;;;;;;;;;;5082737;28;20086;-72
2023/01/24 07:05:48;;;;;;;18.10;11.90;;;;;;;;;;5083830;28;20387;-72
2023/01/24 07:08:14;;;;;;;16.23;11.52;;;;;;;;;;5081504;28;20429;-74
2023/01/24 07:10:40;;;;;;;16.38;11.80;;;;;;;;;;5084315;28;20055;-72
2023/01/24 07:13:09;;;;;;;16.42;11.52;;;;;;;;;;5080645;28;20055;-72
2023/01/24 07:15:35;;;;;;;16.20;12.05;;;;;;;;;;5072913;28;20050;-72
2023/01/24 07:18:05;;;;;;;17.35;12.55;;;;;;;;;;5092033;28;20044;-72
2023/01/24 07:20:31;;;;;;;17.75;12.68;;;;;;;;;;5076583;28;20048;-72
2023/01/24 07:22:57;;;;;;;17.38;11.90;;;;;;;;;;5082191;28;20052;-71
2023/01/24 07:25:24;;;;;;;16.50;12.00;;;;;;;;;;5073871;28;20040;-72
2023/01/24 07:27:50;;;;;;;17.50;11.93;;;;;;;;;;5088269;28;20043;-72
2023/01/24 07:30:16;;;;;;;18.75;12.60;;;;;;;;;;5075937;28;20067;-72
2023/01/24 07:32:42;;;;;;;17.52;12.05;;;;;;;;;;5092642;28;20055;-72
2023/01/24 07:35:08;;;;;;;18.27;12.30;;;;;;;;;;5093368;28;20047;-72
2023/01/24 07:37:35;;;;;;;18.30;12.70;;;;;;;;;;5075282;28;20044;-72
2023/01/24 07:40:01;;;;;;;19.13;12.13;;;;;;;;;;5072752;28;20045;-72
2023/01/24 07:42:27;;;;;;;19.00;13.15;;;;;;;;;;5055121;28;20376;-71
2023/01/24 07:44:53;;;;;;;19.83;13.38;;;;;;;;;;5069712;28;20047;-72
2023/01/24 07:47:20;;;;;;;16.80;12.52;;;;;;;;;;5080936;28;20118;-71
2023/01/24 07:49:46;;;;;;;18.75;12.65;;;;;;;;;;5084958;28;20407;-72
2023/01/24 07:52:12;;;;;;;18.73;12.38;;;;;;;;;;5077228;28;20059;-72
2023/01/24 07:54:38;;;;;;;19.35;13.30;;;;;;;;;;5085955;28;20489;-72
2023/01/24 07:57:04;;;;;;;18.02;13.55;;;;;;;;;;5092744;28;20052;-72
2023/01/24 07:59:30;;;;;;;17.98;13.07;;;;;;;;;;5092444;28;20052;-72
2023/01/24 08:01:56;;;;;;;18.13;12.57;;;;;;;;;;5076798;28;20102;-74
2023/01/24 08:04:22;;;;;;;17.10;12.13;;;;;;;;;;5072200;28;20509;-72
2023/01/24 08:09:33;;;;;;;17.15;11.77;;;;;;;;;;5086893;28;20043;-72
2023/01/24 08:11:59;;;;;;;19.92;13.23;;;;;;;;;;5090267;28;20050;-72
2023/01/24 08:14:25;;;;;;;17.92;12.43;;;;;;;;;;5085111;28;20068;-73
2023/01/24 08:16:51;;;;;;;17.67;11.82;;;;;;;;;;5077301;28;20048;-72
2023/01/24 08:19:17;;;;;;;17.10;12.48;;;;;;;;;;5076646;28;20072;-74
2023/01/24 08:21:43;;;;;;;19.05;12.52;;;;;;;;;;5091212;28;20069;-72
2023/01/24 08:24:09;;;;;;;17.35;12.82;;;;;;;;;;5092059;28;20059;-72
2023/01/24 08:26:35;;;;;;;18.10;12.38;;;;;;;;;;5089975;28;20110;-73
2023/01/24 08:29:01;;;;;;;18.50;12.98;;;;;;;;;;5092250;28;20050;-73
2023/01/24 08:31:27;;;;;;;18.75;13.52;;;;;;;;;;5084149;28;20044;-74
2023/01/24 08:33:53;;;;;;;21.58;13.32;;;;;;;;;;5090218;28;20043;-73
2023/01/24 08:36:20;;;;;;;16.88;12.68;;;;;;;;;;5092075;28;20051;-75
2023/01/24 08:38:46;;;;;;;18.98;12.77;;;;;;;;;;5091994;28;20055;-73
2023/01/24 08:41:12;;;;;;;16.27;11.75;;;;;;;;;;5081638;28;20128;-72
2023/01/24 08:43:38;;;;;;;18.25;12.68;;;;;;;;;;5074637;28;20147;-75
2023/01/24 08:46:04;;;;;;;18.88;12.10;;;;;;;;;;5091863;28;20040;-74
2023/01/24 08:48:31;;;;;;;16.35;12.35;;;;;;;;;;5090304;28;20454;-74
2023/01/24 08:50:57;;;;;;;17.98;13.40;;;;;;;;;;5091077;28;20158;-75
2023/01/24 08:53:23;;;;;;;18.83;13.23;;;;;;;;;;5062502;28;20054;-75
2023/01/24 08:55:49;;;;;;;18.75;12.88;;;;;;;;;;5086340;28;20074;-75
2023/01/24 08:58:16;;;;;;;16.95;12.52;;;;;;;;;;5062849;28;20555;-75
2023/01/24 09:00:42;;;;;;;18.52;12.50;;;;;;;;;;5084984;28;20040;-74
2023/01/24 09:03:09;;;;;;;19.73;12.98;;;;;;;;;;5085624;28;20060;-73
2023/01/24 09:05:36;;;;;;;19.63;13.30;;;;;;;;;;5087590;28;20105;-73
2023/01/24 09:08:02;;;;;;;17.45;12.48;;;;;;;;;;5096187;28;20443;-74
2023/01/24 09:10:28;;;;;;;17.80;12.55;;;;;;;;;;5096524;28;20092;-76
2023/01/24 09:12:54;;;;;;;17.75;13.05;;;;;;;;;;5063773;28;20516;-75
2023/01/24 09:15:20;;;;;;;20.15;13.32;;;;;;;;;;5095529;28;20048;-75
2023/01/24 09:17:46;;;;;;;22.00;14.38;;;;;;;;;;5058761;28;20552;-75
2023/01/24 09:20:12;;;;;;;16.70;11.65;;;;;;;;;;5058009;28;20048;-74
2023/01/24 09:22:39;;;;;;;21.13;15.30;;;;;;;;;;5084595;28;20448;-73
2023/01/24 09:25:07;;;;;;;18.75;12.90;;;;;;;;;;5091041;28;20040;-74
2023/01/24 09:27:33;;;;;;;21.83;14.82;;;;;;;;;;5083294;28;20051;-73
2023/01/24 09:29:59;;;;;;;19.38;13.48;;;;;;;;;;5083067;28;20056;-74
2023/01/24 09:32:25;;;;;;;20.52;14.70;;;;;;;;;;5085985;28;20486;-75
2023/01/24 09:34:51;;;;;;;17.67;13.00;;;;;;;;;;5083822;28;20131;-77
2023/01/24 09:37:21;;;;;;;20.08;13.73;;;;;;;;;;5085497;28;20490;-73
2023/01/24 09:39:47;;;;;;;19.35;13.40;;;;;;;;;;5088388;28;20647;-74
2023/01/24 09:42:17;;;;;;;21.58;14.40;;;;;;;;;;5067804;28;20105;-75
2023/01/24 09:44:45;;;;;;;18.38;12.57;;;;;;;;;;5080295;28;20048;-75
2023/01/24 09:47:20;;;;;;;18.13;13.52;;;;;;;;;;5085724;28;20122;-74
2023/01/24 09:49:59;;;;;;;17.83;12.73;;;;;;;;;;5082677;28;20478;-73
2023/01/24 09:52:31;;;;;;;19.08;14.30;;;;;;;;;;5086354;28;20052;-74
2023/01/24 09:55:06;;;;;;;18.45;13.68;;;;;;;;;;5081724;28;20036;-74
2023/01/24 09:57:37;;;;;;;19.80;13.27;;;;;;;;;;5079968;28;20044;-75
2023/01/24 10:00:23;;;;;;;20.75;13.68;;;;;;;;;;5074571;28;20045;-74
2023/01/24 10:02:49;;;;;;;16.73;12.07;;;;;;;;;;5058601;28;20056;-75
2023/01/24 10:05:16;;;;;;;20.08;13.85;;;;;;;;;;5085045;28;20383;-75
2023/01/24 10:07:45;;;;;;;19.38;13.85;;;;;;;;;;5088252;28;20127;-76
2023/01/24 10:10:11;;;;;;;19.83;14.35;;;;;;;;;;5081987;28;20067;-74
2023/01/24 10:12:47;;;;;;;20.00;14.00;;;;;;;;;;5085801;28;20040;-74
2023/01/24 10:15:16;;;;;;;19.63;13.60;;;;;;;;;;5084098;28;20080;-74
2023/01/24 10:18:06;;;;;;;17.92;12.68;;;;;;;;;;5086637;28;20052;-75
2023/01/24 10:20:43;;;;;;;17.02;12.25;;;;;;;;;;5076056;28;20052;-76
2023/01/24 10:23:25;;;;;;;18.42;12.85;;;;;;;;;;5080409;28;20040;-76
2023/01/24 10:25:54;;;;;;;17.08;13.32;;;;;;;;;;5088927;28;20101;-74
2023/01/24 10:28:28;;;;;;;18.63;13.77;;;;;;;;;;5083745;28;20048;-74
2023/01/24 10:31:14;;;;;;;18.55;13.73;;;;;;;;;;5080963;28;20048;-73
2023/01/24 10:33:47;;;;;;;18.33;13.30;;;;;;;;;;5090227;28;20478;-73
2023/01/24 10:36:29;;;;;;;17.25;13.10;;;;;;;;;;5087284;28;20051;-73
2023/01/24 10:38:55;;;;;;;;;;;;;;;;;;5084220;28;20048;-74
2023/01/24 10:41:22;;;;;;;17.17;12.77;;;;;;;;;;5087530;28;20369;-73
2023/01/24 10:43:51;;;;;;;20.17;13.23;;;;;;;;;;5085136;28;20082;-76
2023/01/24 10:46:32;;;;;;;18.00;14.05;;;;;;;;;;5081959;28;20074;-73
2023/01/24 10:48:59;;;;;;;19.73;13.95;;;;;;;;;;5082637;28;21669;-74
2023/01/24 10:51:25;;;;;;;18.38;13.95;;;;;;;;;;5065879;28;20044;-76
2023/01/24 10:53:51;;;;;;;19.83;13.60;;;;;;;;;;5083145;28;20066;-74
2023/01/24 10:56:18;;;;;;;21.20;14.18;;;;;;;;;;5062331;28;20095;-75
2023/01/24 10:59:00;;;;;;;21.45;14.00;;;;;;;;;;5082313;28;20520;-73
2023/01/24 11:01:35;;;;;;;20.00;13.20;;;;;;;;;;5078942;28;20055;-75
2023/01/24 11:04:13;;;;;;;19.85;13.20;;;;;;;;;;5083002;28;20044;-75
2023/01/24 11:06:39;;;;;;;17.38;13.10;;;;;;;;;;5063125;28;20048;-77
2023/01/24 11:09:12;;;;;;;17.55;13.30;;;;;;;;;;5086634;28;20051;-77
2023/01/24 11:11:43;;;;;;;17.30;13.43;;;;;;;;;;5085602;28;20685;-75
2023/01/24 11:14:13;;;;;;;20.05;13.90;;;;;;;;;;5078877;28;20072;-73
2023/01/24 11:16:46;;;;;;;20.67;15.75;;;;;;;;;;5079638;28;20059;-72
2023/01/24 11:19:32;;;;;;;20.52;14.98;;;;;;;;;;5083415;28;20507;-72
2023/01/24 11:21:59;;;;;;;21.08;15.25;;;;;;;;;;5090600;28;20048;-72
2023/01/24 11:24:26;;;;;;;20.98;15.75;;;;;;;;;;5077298;28;20426;-71
2023/01/24 11:27:02;;;;;;;21.08;15.52;;;;;;;;;;5088042;28;20059;-74
2023/01/24 11:29:28;;;;;;;19.77;14.75;;;;;;;;;;5077555;28;20709;-71
2023/01/24 11:31:56;;;;;;;19.38;14.18;;;;;;;;;;5089789;28;20382;-73
2023/01/24 11:34:45;;;;;;;20.40;15.10;;;;;;;;;;5091819;28;20036;-72
2023/01/24 11:37:30;;;;;;;19.50;14.90;;;;;;;;;;5069206;28;20052;-73
2023/01/24 11:40:05;;;;;;;20.38;14.80;;;;;;;;;;5087406;28;20105;-72
2023/01/24 11:42:37;;;;;;;19.20;14.30;;;;;;;;;;5092059;28;20044;-72
2023/01/24 11:45:08;;;;;;;21.45;15.38;;;;;;;;;;5092669;28;20091;-72
2023/01/24 11:47:34;;;;;;;;;;;;;;;;;;5093378;28;20047;-73
2023/01/24 11:50:00;;;;;;;18.33;13.55;;;;;;;;;;5092880;28;19920;-72
2023/01/24 11:52:29;;;;;;;19.40;13.40;;;;;;;;;;5092847;28;20044;-73
2023/01/24 11:55:04;;;;;;;19.95;13.65;;;;;;;;;;5085089;28;20049;-72
2023/01/24 11:57:32;;;;;;;25.27;16.63;;;;;;;;;;5072628;28;20114;-72
2023/01/24 12:00:17;;;;;;;18.83;13.77;;;;;;;;;;5073085;28;20040;-72
2023/01/24 12:03:02;;;;;;;18.38;12.82;;;;;;;;;;5076995;28;20048;-72
2023/01/24 12:05:28;;;;;;;19.00;13.50;;;;;;;;;;5077467;28;20132;-72
2023/01/24 12:08:00;;;;;;;17.50;13.20;;;;;;;;;;5075254;28;20051;-71
2023/01/24 12:10:52;;;;;;;23.30;13.52;;;;;;;;;;5088315;28;20072;-71
2023/01/24 12:13:37;;;;;;;21.83;14.50;;;;;;;;;;5087068;28;20051;-72
2023/01/24 12:16:22;;;;;;;17.83;13.02;;;;;;;;;;5090234;28;20043;-73
2023/01/24 12:18:51;;;;;;;19.13;14.15;;;;;;;;;;5086543;28;20055;-73
2023/01/24 12:21:17;;;;;;;20.08;12.98;;;;;;;;;;5083399;28;20113;-75
2023/01/24 12:23:52;;;;;;;25.48;14.25;;;;;;;;;;5090160;28;20056;-73
2023/01/24 12:26:20;;;;;;;20.65;14.30;;;;;;;;;;5070148;28;20082;-72
2023/01/24 12:28:50;;;;;;;21.23;14.55;;;;;;;;;;5082379;28;20047;-72
2023/01/24 12:31:19;;;;;;;19.85;14.93;;;;;;;;;;5074335;28;20117;-72
2023/01/24 12:34:04;;;;;;;19.23;14.27;;;;;;;;;;5091813;28;20493;-74
2023/01/24 12:36:37;;;;;;;19.45;14.60;;;;;;;;;;5090625;28;20047;-74
2023/01/24 12:39:11;;;;;;;19.85;14.13;;;;;;;;;;5073145;28;20059;-73
2023/01/24 12:41:37;;;;;;;18.75;12.73;;;;;;;;;;5089184;28;20124;-72
2023/01/24 12:44:22;;;;;;;20.48;14.98;;;;;;;;;;5091098;28;20123;-73
2023/01/24 12:46:51;;;;;;;20.75;14.25;;;;;;;;;;5087707;28;20524;-73
2023/01/24 12:49:36;;;;;;;21.92;14.70;;;;;;;;;;5086666;28;20045;-76
2023/01/24 12:52:17;;;;;;;19.33;13.90;;;;;;;;;;5087844;28;20055;-73
2023/01/24 12:54:55;;;;;;;20.65;14.55;;;;;;;;;;5090721;28;20049;-76
2023/01/24 12:57:26;;;;;;;23.05;14.98;;;;;;;;;;5077003;28;20107;-76
2023/01/24 12:59:52;;;;;;;19.15;14.32;;;;;;;;;;5066293;28;20048;-75
2023/01/24 13:02:36;;;;;;;19.48;14.23;;;;;;;;;;5091591;28;20057;-74
2023/01/24 13:05:18;;;;;;;20.05;14.38;;;;;;;;;;5091646;28;20048;-73
2023/01/24 13:08:02;;;;;;;19.45;14.45;;;;;;;;;;5066120;28;20032;-75
2023/01/24 13:10:34;;;;;;;19.10;13.57;;;;;;;;;;5074510;28;20055;-72
2023/01/24 13:13:01;;;;;;;19.52;14.23;;;;;;;;;;5072376;28;20060;-72
2023/01/24 13:15:37;;;;;;;19.88;14.68;;;;;;;;;;5069030;28;20048;-72
2023/01/24 13:18:06;;;;;;;19.27;14.07;;;;;;;;;;5069905;28;20044;-72
2023/01/24 13:20:51;;;;;;;19.33;13.25;;;;;;;;;;5073646;28;20070;-72
2023/01/24 13:23:29;;;;;;;19.08;14.27;;;;;;;;;;5089097;28;20087;-73
2023/01/24 13:26:08;;;;;;;20.98;14.50;;;;;;;;;;5071360;28;20059;-72
2023/01/24 13:28:34;;;;;;;21.98;16.50;;;;;;;;;;5083164;28;20043;-73
2023/01/24 13:31:09;;;;;;;19.40;15.27;;;;;;;;;;5090227;28;20076;-72
2023/01/24 13:33:41;;;;;;;20.50;14.80;;;;;;;;;;5087569;28;20044;-72
2023/01/24 13:36:07;;;;;;;20.38;14.27;;;;;;;;;;5084802;28;20127;-72
2023/01/24 13:38:40;;;;;;;20.58;14.98;;;;;;;;;;5082040;28;20116;-72
2023/01/24 13:41:07;;;;;;;21.63;15.68;;;;;;;;;;5089859;28;20089;-76
2023/01/24 13:43:36;;;;;;;19.60;14.52;;;;;;;;;;5090033;28;20040;-73
2023/01/24 13:46:02;;;;;;;18.92;13.98;;;;;;;;;;5088981;28;20105;-74
2023/01/24 13:48:44;;;;;;;20.48;14.68;;;;;;;;;;5088689;28;20507;-74
2023/01/24 13:51:22;;;;;;;20.05;14.15;;;;;;;;;;5074377;28;20063;-77
2023/01/24 13:54:00;;;;;;;18.92;14.50;;;;;;;;;;5091765;28;20498;-74
2023/01/24 13:56:27;;;;;;;20.63;14.60;;;;;;;;;;5085249;28;20040;-74
2023/01/24 13:58:54;;;;;;;19.45;14.30;;;;;;;;;;5083462;28;20508;-72
2023/01/24 14:01:21;;;;;;;20.02;14.75;;;;;;;;;;5078594;28;20075;-72
2023/01/24 14:03:58;;;;;;;22.08;15.23;;;;;;;;;;5087195;28;20102;-72
2023/01/24 14:06:25;;;;;;;19.55;14.68;;;;;;;;;;5093340;28;20063;-72
2023/01/24 14:08:54;;;;;;;21.15;15.80;;;;;;;;;;5088187;28;20056;-73
2023/01/24 14:11:22;;;;;;;20.58;15.30;;;;;;;;;;5084605;28;20045;-72
2023/01/24 14:13:54;;;;;;;19.40;14.75;;;;;;;;;;5093774;28;20056;-72
2023/01/24 14:16:27;;;;;;;20.67;15.05;;;;;;;;;;5093212;28;20052;-72
2023/01/24 14:18:53;;;;;;;20.65;14.85;;;;;;;;;;5094692;28;20436;-73
2023/01/24 14:21:21;;;;;;;20.83;15.85;;;;;;;;;;5078119;28;20445;-73
2023/01/24 14:23:49;;;;;;;21.35;15.50;;;;;;;;;;5079520;28;20041;-72
2023/01/24 14:26:18;;;;;;;21.25;14.98;;;;;;;;;;5056258;28;20102;-73
2023/01/24 14:28:46;;;;;;;23.40;16.65;;;;;;;;;;5083262;28;20044;-72
2023/01/24 14:31:20;;;;;;;24.83;16.73;;;;;;;;;;5087889;28;20057;-72
2023/01/24 14:33:54;;;;;;;23.70;16.42;;;;;;;;;;5082868;28;20051;-73
2023/01/24 14:36:28;;;;;;;23.42;15.95;;;;;;;;;;5093173;28;20052;-72
2023/01/24 14:39:13;;;;;;;25.90;16.42;;;;;;;;;;5082406;28;20414;-72
2023/01/24 14:41:40;;;;;;;19.98;14.68;;;;;;;;;;5081911;28;20568;-72
2023/01/24 14:44:21;;;;;;;20.17;15.05;;;;;;;;;;5091885;28;20043;-72
2023/01/24 14:46:53;;;;;;;20.95;14.75;;;;;;;;;;5085054;28;20047;-72
2023/01/24 14:49:27;;;;;;;21.60;14.10;;;;;;;;;;5061239;28;20040;-72
2023/01/24 14:51:53;;;;;;;20.27;14.40;;;;;;;;;;5078048;28;20047;-72
2023/01/24 14:54:20;;;;;;;20.80;15.85;;;;;;;;;;5077081;28;20055;-72
2023/01/24 14:56:47;;;;;;;19.23;14.73;;;;;;;;;;5077636;28;20518;-72
2023/01/24 14:59:14;;;;;;;20.58;14.48;;;;;;;;;;5058099;28;20036;-72
2023/01/24 15:01:40;;;;;;;20.15;14.90;;;;;;;;;;5087013;28;20074;-72
2023/01/24 15:04:19;;;;;;;19.05;14.15;;;;;;;;;;5072483;28;20055;-72
2023/01/24 15:06:46;;;;;;;22.02;14.75;;;;;;;;;;5073484;28;20426;-71
2023/01/24 15:09:14;;;;;;;20.80;14.63;;;;;;;;;;5073517;28;20080;-72